Hamilton, TX

9:11 PM CDT on October 21, 2017 (GMT -0500)
Hamilton Municipal

Weather History for KMNZ - January, 2014

Change the Weather History Date:

Saturday, January 25, 2014

  Actual Average (KACT) Record (KACT)
Temperature  
Mean Temperature 48 °F -  
Max Temperature 70 °F 58 °F 83 °F (1972)
Min Temperature 27 °F 37 °F 14 °F (1940)
Degree Days  
Heating Degree Days 16    
Moisture  
Dew Point 21 °F    
Average Humidity 34    
Maximum Humidity 65    
Minimum Humidity 16    
Precipitation  
Precipitation 0.00 in - - ()
Sea Level Pressure  
Sea Level Pressure 30.13 in    
Wind  
Wind Speed 9 mph (WSW)    
Max Wind Speed 18 mph    
Max Gust Speed 23 mph    
Visibility 10 miles    
Events      
Averages and records for this station are not official NWS values.
T = Trace of Precipitation, MM = Missing Value Source: NWS Daily Summary

Daily Weather History Graph

Daily Weather History Graph

Search for Another Location

Airport or City:

Trip Planner

Search our weather history database for the weather conditions in past years. The results will help you decide how hot, cold, wet, or windy it might be!

Date:

Astronomy

Jan. 25, 2014 Rise Set
Actual Time 7:29 AM CST 6:00 PM CST
Civil Twilight 7:03 AM CST 6:26 PM CST
Nautical Twilight 6:34 AM CST 6:56 PM CST
Astronomical Twilight 6:05 AM CST 7:25 PM CST
Moon 2:04 AM CST (1/25) 1:01 PM CST (1/25)
Length of Visible Light 11h 23m
Length of Day
10h 31m
Waning Crescent, 34% of the Moon is Illuminated
Jan 25
Waning Crescent
Jan 30
New
Feb 6
First Quarter
Feb 14
Full
Feb 22
Last Quarter

Hourly Weather History & Observations

Time (CST) Temp. Windchill Dew Point Humidity Pressure Visibility Wind Dir Wind Speed Gust Speed Precip Events Conditions
12:15 AM 27.9 °F 21.5 °F 17.6 °F 65% 30.27 in 10.0 mi SSW 5.8 mph - N/A   Clear
12:35 AM 30.6 °F 27.1 °F 18.1 °F 60% 30.26 in 10.0 mi SW 3.5 mph - N/A   Clear
12:55 AM 29.7 °F 23.7 °F 18.7 °F 64% 30.26 in 10.0 mi SW 5.8 mph - N/A   Clear
1:15 AM 31.1 °F 23.1 °F 19.4 °F 62% 30.24 in 10.0 mi SW 9.2 mph - N/A   Clear
1:35 AM 32.0 °F 24.2 °F 19.2 °F 59% 30.23 in 10.0 mi SW 9.2 mph - N/A   Clear
1:55 AM 33.1 °F 25.5 °F 19.0 °F 56% 30.22 in 10.0 mi WSW 9.2 mph - N/A   Clear
2:15 AM 34.7 °F 27.5 °F 18.7 °F 52% 30.21 in 10.0 mi WSW 9.2 mph - N/A   Clear
2:35 AM 35.8 °F 27.8 °F 18.1 °F 49% 30.20 in 10.0 mi WSW 11.5 mph - N/A   Clear
2:55 AM 36.7 °F 28.0 °F 17.6 °F 46% 30.20 in 10.0 mi WSW 13.8 mph - N/A   Clear
3:15 AM 36.7 °F 29.4 °F 17.4 °F 46% 30.19 in 10.0 mi WSW 10.4 mph - N/A   Clear
3:35 AM 37.4 °F 29.3 °F 16.7 °F 43% 30.19 in 10.0 mi West 12.7 mph - N/A   Clear
3:55 AM 38.3 °F 29.3 °F 16.3 °F 41% 30.18 in 10.0 mi West 16.1 mph - N/A   Clear
4:15 AM 37.9 °F 28.9 °F 16.2 °F 41% 30.17 in 10.0 mi West 16.1 mph 21.9 mph N/A   Clear
4:35 AM 37.8 °F 28.0 °F 15.8 °F 41% 30.17 in 10.0 mi West 18.4 mph 23.0 mph N/A   Clear
4:55 AM 37.9 °F 28.5 °F 15.6 °F 40% 30.16 in 10.0 mi West 17.3 mph 23.0 mph N/A   Clear
5:15 AM 37.8 °F 28.6 °F 15.6 °F 41% 30.16 in 10.0 mi West 16.1 mph - N/A   Clear
5:35 AM 37.8 °F 29.0 °F 15.4 °F 40% 30.15 in 10.0 mi West 15.0 mph - N/A   Clear
5:55 AM 37.6 °F 29.1 °F 15.4 °F 41% 30.15 in 10.0 mi West 13.8 mph - N/A   Clear
6:15 AM 37.9 °F 29.6 °F 15.3 °F 40% 30.15 in 10.0 mi West 13.8 mph 19.6 mph N/A   Clear
6:35 AM 38.3 °F 30.1 °F 15.1 °F 39% 30.16 in 10.0 mi West 13.8 mph - N/A   Clear
6:55 AM 37.8 °F 29.4 °F 15.4 °F 40% 30.16 in 10.0 mi West 13.8 mph - N/A   Clear
7:15 AM 38.5 °F 30.7 °F 15.3 °F 39% 30.16 in 10.0 mi West 12.7 mph - N/A   Clear
7:35 AM 38.7 °F 30.9 °F 15.3 °F 39% 30.16 in 10.0 mi West 12.7 mph - N/A   Clear
7:55 AM 38.3 °F 30.9 °F 15.6 °F 40% 30.17 in 10.0 mi West 11.5 mph - N/A   Clear
8:15 AM 40.1 °F 33.2 °F 15.8 °F 37% 30.17 in 10.0 mi West 11.5 mph - N/A   Clear
8:35 AM 41.4 °F 35.2 °F 15.8 °F 36% 30.17 in 10.0 mi West 10.4 mph - N/A   Clear
8:55 AM 43.0 °F 37.2 °F 16.2 °F 34% 30.17 in 10.0 mi West 10.4 mph - N/A   Clear
9:15 AM 44.8 °F 38.7 °F 16.5 °F 32% 30.17 in 10.0 mi West 12.7 mph - N/A   Clear
9:35 AM 46.4 °F 41.5 °F 16.7 °F 31% 30.17 in 10.0 mi West 10.4 mph - N/A   Clear
9:55 AM 48.7 °F - 18.1 °F 30% 30.18 in 10.0 mi West 9.2 mph - N/A   Clear
10:15 AM 51.8 °F - 18.5 °F 27% 30.18 in 10.0 mi WNW 9.2 mph - N/A   Clear
10:35 AM 54.1 °F - 17.8 °F 24% 30.18 in 10.0 mi WNW 11.5 mph - N/A   Clear
10:55 AM 55.6 °F - 18.3 °F 23% 30.18 in 10.0 mi NNW 10.4 mph - N/A   Clear
11:15 AM 59.0 °F - 14.9 °F 18% 30.18 in 10.0 mi NW 13.8 mph - N/A   Clear
11:35 AM 59.0 °F - 15.6 °F 18% 30.17 in 10.0 mi NW 10.4 mph - N/A   Clear
11:55 AM 60.4 °F - 16.5 °F 18% 30.17 in 10.0 mi NW 8.1 mph - N/A   Clear
12:15 PM 61.7 °F - 16.0 °F 17% 30.15 in 10.0 mi NNW 9.2 mph - N/A   Clear
12:35 PM 63.7 °F - 16.9 °F 16% 30.14 in 10.0 mi NNW 8.1 mph - N/A   Clear
12:55 PM 64.2 °F - 18.0 °F 17% 30.13 in 10.0 mi NNW 5.8 mph - N/A   Clear
1:15 PM 65.3 °F - 20.3 °F 18% 30.12 in 10.0 mi NNW 6.9 mph - N/A   Clear
1:35 PM 65.3 °F - 21.4 °F 19% 30.11 in 10.0 mi North 6.9 mph - N/A   Clear
1:55 PM 66.7 °F - 23.0 °F 19% 30.09 in 10.0 mi North 5.8 mph - N/A   Clear
2:15 PM 67.6 °F - 22.8 °F 18% 30.08 in 10.0 mi NNE 5.8 mph - N/A   Clear
2:35 PM 68.2 °F - 23.4 °F 18% 30.08 in 10.0 mi North 4.6 mph - N/A   Clear
2:55 PM 69.1 °F - 24.1 °F 18% 30.07 in 10.0 mi North 4.6 mph - N/A   Clear
3:15 PM 70.0 °F - 23.5 °F 17% 30.07 in 10.0 mi NNW 3.5 mph - N/A   Clear
3:35 PM 70.2 °F - 24.6 °F 18% 30.07 in 10.0 mi East 3.5 mph - N/A   Clear
3:55 PM 70.0 °F - 24.3 °F 18% 30.06 in 10.0 mi East 3.5 mph - N/A   Clear
4:15 PM 69.8 °F - 25.9 °F 19% 30.06 in 10.0 mi East 5.8 mph - N/A   Clear
4:35 PM 69.3 °F - 25.2 °F 19% 30.06 in 10.0 mi Calm Calm - N/A   Clear
4:55 PM 68.2 °F - 27.0 °F 21% 30.06 in 10.0 mi Calm Calm - N/A   Clear
5:15 PM 66.4 °F - 30.0 °F 26% 30.06 in 10.0 mi SE 8.1 mph - N/A   Clear
5:35 PM 65.5 °F - 28.9 °F 25% 30.07 in 10.0 mi ESE 6.9 mph - N/A   Clear
5:55 PM 64.4 °F - 28.9 °F 26% 30.07 in 10.0 mi Calm Calm - N/A   Clear
6:15 PM 64.6 °F - 27.9 °F 25% 30.07 in 10.0 mi ESE 4.6 mph - N/A   Clear
6:35 PM 63.5 °F - 28.4 °F 27% 30.07 in 10.0 mi SSE 4.6 mph - N/A   Clear
6:55 PM 61.0 °F - 29.3 °F 30% 30.06 in 10.0 mi SSE 5.8 mph - N/A   Clear
7:15 PM 58.6 °F - 29.3 °F 33% 30.06 in 10.0 mi Calm Calm - N/A   Clear
7:35 PM 57.9 °F - 29.3 °F 34% 30.06 in 10.0 mi South 4.6 mph - N/A   Clear
7:55 PM 54.7 °F - 30.7 °F 40% 30.06 in 10.0 mi South 4.6 mph - N/A   Clear
8:15 PM 55.6 °F - 30.0 °F 38% 30.06 in 10.0 mi SW 6.9 mph - N/A   Clear
9:15 PM 54.3 °F - 28.2 °F 37% 30.04 in 10.0 mi SSW 4.6 mph - N/A   Clear
9:35 PM 53.1 °F - 28.4 °F 39% 30.04 in 10.0 mi SSW 4.6 mph - N/A   Clear
9:55 PM 50.5 °F - 30.4 °F 46% 30.03 in 10.0 mi SSW 5.8 mph - N/A   Clear
10:15 PM 52.2 °F - 29.5 °F 42% 30.02 in 10.0 mi SSW 4.6 mph - N/A   Clear
10:35 PM 51.8 °F - 29.7 °F 43% 30.02 in 10.0 mi SW 6.9 mph - N/A   Clear
10:55 PM 52.3 °F - 28.6 °F 40% 30.02 in 10.0 mi SSW 5.8 mph - N/A   Clear
11:15 PM 51.8 °F - 28.4 °F 41% 30.01 in 10.0 mi SSW 6.9 mph - N/A   Clear
11:35 PM 51.3 °F - 28.6 °F 42% 30.01 in 10.0 mi SSW 6.9 mph - N/A   Clear
11:55 PM 52.0 °F - 27.9 °F 39% 30.00 in 10.0 mi SSW 5.8 mph - N/A   Clear